Portland, Oregon
Traffic Map
Current Weather Conditions
Portland, Oregon
Overcast
Overcast
60°
Feels Like: 60°
Wind Chill: 60° Ceiling: 21000
Heat Index: 60° Visibility: 10mi
Dew Point: 53° Wind: 3mph
Humidity: 78% Direction: 60° (ENE)
Pressure: 30.12in Gusts: 0mph
Raw Report DataKPDX 262053Z 06003KT 10SM FEW050 BKN210 OVC260 16/12 A3012 RMK AO2 SLP198 T01560117 58017
Traffic Incident Summary
Active as of:
Severity:
Category:
InformationThere was an issue retrieving the traffic information for this location. Please try a different location or try again shortly.
Advertisements
Track Severe Weather on mobile